map of KRXE home
KRXE - Airport
Location
City:  Rexburg, Idaho, United States
Name:Rexburg-Madison County Airport
ICAO:KRXE
FAA LID:RXE

Details
Type:Airport (Airfield)
Use:Public/Civil
Latitude:4350'02"N (43.833917)
Longitude:11148'18"W (-111.805110)
Datum:WGS 1984
Elevation:4862 ft (1482 m)
Variation:11.87E (WMM2015 magnetic declination)
-0.11 annual change
Runways:1
Longest:4204 × 75 ft (1281 × 23 m), paved

Time
Time Zone:UTC-7 (DST-6)
Local Time:

Weather
METAR:KRXE 171253Z AUTO 20008KT 3SM BR OVC002 M07/M07 A3015 RMK AO2 SLP257 I1001 T10671072

Related Locations
Nearby:
Farthest:RRG: 10748 mi / 17297 km
Plaine Corail [Sir Gatan Duval Airport (Plaine Corail Airport)], Rodrigues Island, MU

Find:

   beyond  
but within

Other Information
Maps:
NOTAMs:
Links:
Sources:

  
flag of United States
flag of Idaho
  

Sectional Chart

Flight Planning
at skyvector.com

Satellite Image

Google Maps Satellite view

 

Copyright © 2004-2017 Karl L. Swartz. All rights reserved.
The Great Circle Mapper name and logo are trademarks of the Great Circle Mapper.
All other trademarks mentioned herein belong to their respective owners.
Please see credits for attibutions and further copyright information.

  Follow gcmap on Facebook Follow gcmap on Twitter Follow gcmap on Google+ GCmap on LinkedIn

hCard Microformat

Geo Microformat